Time;durP1;ratioP1;P1;durP2;ratioP2;P2;SDS_P1;SDS_P2;PMS_P1;PMS_P2;Temp;Humidity;BMP_temperature;BMP_pressure;BME280_temperature;BME280_humidity;BME280_pressure;Samples;Min_cycle;Max_cycle;Signal;HPM_P1;HPM_P2
2022/08/05 00:06:44;;;;;;;1.73;0.70;;;19.50;99.90;;;;;;20830341;28;20057;-39
2022/08/05 00:16:45;;;;;;;1.83;0.63;;;19.40;99.90;;;;;;20831241;28;20122;-40
2022/08/05 00:26:46;;;;;;;1.60;0.60;;;19.40;99.90;;;;;;20833557;28;20049;-39
2022/08/05 00:36:48;;;;;;;2.30;1.00;;;19.30;99.90;;;;;;20830711;28;20072;-39
2022/08/05 00:46:49;;;;;;;1.20;0.55;;;19.30;99.90;;;;;;20828066;28;20091;-40
2022/08/05 00:56:50;;;;;;;2.50;0.60;;;19.20;99.90;;;;;;20830548;28;20123;-42
2022/08/05 01:06:51;;;;;;;2.03;0.52;;;19.20;99.90;;;;;;20825938;28;20037;-39
2022/08/05 01:17:07;;;;;;;1.48;0.70;;;19.20;99.90;;;;;;20828053;28;20048;-40
2022/08/05 01:27:38;;;;;;;1.20;0.50;;;19.00;99.90;;;;;;20831463;28;20061;-40
2022/08/05 01:38:00;;;;;;;2.53;0.60;;;19.00;99.90;;;;;;20824083;28;21053;-39
2022/08/05 01:48:02;;;;;;;1.33;0.45;;;19.00;99.90;;;;;;20826364;28;20159;-39
2022/08/05 01:58:06;;;;;;;1.10;0.68;;;18.90;99.90;;;;;;20833564;28;20077;-39
2022/08/05 02:08:07;;;;;;;1.08;0.40;;;18.90;99.90;;;;;;20825149;28;20048;-38
2022/08/05 02:18:23;;;;;;;1.05;0.50;;;18.80;99.90;;;;;;20815388;28;20095;-39
2022/08/05 02:28:28;;;;;;;1.10;0.50;;;18.80;99.90;;;;;;20849280;28;20890;-39
2022/08/05 02:38:29;;;;;;;1.27;0.63;;;18.70;99.90;;;;;;20842011;28;20055;-39
2022/08/05 02:48:31;;;;;;;1.35;0.50;;;18.60;99.90;;;;;;20854915;28;20033;-39
2022/08/05 02:58:33;;;;;;;3.17;0.85;;;18.60;99.90;;;;;;20843608;28;20845;-39
2022/08/05 03:08:36;;;;;;;1.42;0.40;;;18.50;99.90;;;;;;20872297;28;21659;-39
2022/08/05 03:18:37;;;;;;;1.05;0.43;;;18.50;99.90;;;;;;20879260;28;20558;-40
2022/08/05 03:28:38;;;;;;;2.33;1.50;;;18.40;99.90;;;;;;20882381;28;20613;-39
2022/08/05 03:38:43;;;;;;;2.38;0.70;;;18.40;99.90;;;;;;20866698;28;20469;-39
2022/08/05 03:48:44;;;;;;;0.88;0.30;;;18.40;99.90;;;;;;20878049;28;20392;-39
2022/08/05 03:58:47;;;;;;;1.45;0.45;;;18.20;99.90;;;;;;20880605;28;20560;-39
2022/08/05 04:08:48;;;;;;;0.65;0.30;;;18.10;99.90;;;;;;20883178;28;20217;-39
2022/08/05 04:18:49;;;;;;;1.30;0.40;;;18.00;99.90;;;;;;20887905;28;20070;-40
2022/08/05 04:28:50;;;;;;;1.35;0.40;;;18.00;99.90;;;;;;20894659;28;20093;-39
2022/08/05 04:38:53;;;;;;;1.95;0.50;;;17.90;99.90;;;;;;20902375;28;20052;-39
2022/08/05 04:48:54;;;;;;;0.95;0.38;;;17.80;99.90;;;;;;20914933;28;20040;-39
2022/08/05 04:58:55;;;;;;;1.52;0.43;;;17.70;99.90;;;;;;20913058;28;20251;-38
2022/08/05 05:08:57;;;;;;;1.38;0.52;;;17.40;99.90;;;;;;20912517;28;20836;-39
2022/08/05 05:18:58;;;;;;;1.73;0.40;;;17.10;99.90;;;;;;20904205;28;20093;-45
2022/08/05 05:28:59;;;;;;;1.35;0.47;;;17.10;99.90;;;;;;20903136;28;20041;-39
2022/08/05 05:39:00;;;;;;;1.02;0.45;;;17.50;99.90;;;;;;20905673;28;20049;-40
2022/08/05 05:49:01;;;;;;;1.65;0.40;;;17.90;99.90;;;;;;20901660;28;20480;-40
2022/08/05 05:59:04;;;;;;;1.08;0.30;;;18.10;99.90;;;;;;20894715;28;20450;-39
2022/08/05 06:09:06;;;;;;;0.88;0.25;;;18.40;99.90;;;;;;20865447;28;20055;-39
2022/08/05 06:19:07;;;;;;;3.72;0.20;;;18.70;99.90;;;;;;20856992;28;20098;-40
2022/08/05 06:29:08;;;;;;;0.80;0.40;;;18.90;99.90;;;;;;20876523;28;20126;-40
2022/08/05 06:39:09;;;;;;;0.50;0.20;;;19.10;99.90;;;;;;20836924;28;20067;-40
2022/08/05 06:49:10;;;;;;;1.00;0.13;;;19.50;99.90;;;;;;20832476;28;20077;-38
2022/08/05 06:59:13;;;;;;;0.50;0.20;;;19.80;99.90;;;;;;20861867;28;20059;-39
2022/08/05 07:09:14;;;;;;;0.47;0.30;;;19.70;99.90;;;;;;20858665;28;20068;-39
2022/08/05 07:19:17;;;;;;;0.55;0.20;;;19.70;99.90;;;;;;20860164;28;20094;-39
2022/08/05 07:29:18;;;;;;;0.45;0.30;;;19.90;99.90;;;;;;20875934;28;20033;-39
2022/08/05 07:39:19;;;;;;;0.50;0.20;;;19.70;99.90;;;;;;20843346;28;20081;-39
2022/08/05 07:49:20;;;;;;;0.50;0.10;;;19.80;99.90;;;;;;20854720;28;20064;-39
2022/08/05 07:59:21;;;;;;;0.50;0.20;;;20.00;99.90;;;;;;20843006;28;20047;-39
2022/08/05 08:09:23;;;;;;;1.42;0.43;;;20.00;99.90;;;;;;20849805;28;20164;-38
2022/08/05 08:19:24;;;;;;;0.70;0.15;;;20.20;99.90;;;;;;20850363;28;20222;-40
2022/08/05 08:29:25;;;;;;;0.45;0.20;;;20.70;99.90;;;;;;20833382;28;20044;-39
2022/08/05 08:39:26;;;;;;;1.95;0.20;;;20.80;99.90;;;;;;20836606;28;20132;-39
2022/08/05 08:49:32;;;;;;;2.05;0.20;;;20.90;99.90;;;;;;20831398;28;20740;-39
2022/08/05 08:59:35;;;;;;;0.22;0.10;;;21.00;99.90;;;;;;20832382;28;21327;-39
2022/08/05 09:09:36;;;;;;;0.35;0.15;;;21.20;99.90;;;;;;20836009;28;20572;-39
2022/08/05 09:19:38;;;;;;;0.50;0.13;;;21.70;99.90;;;;;;20821808;28;21407;-39
2022/08/05 09:29:44;;;;;;;0.25;0.10;;;21.30;99.90;;;;;;20827393;28;20127;-39
2022/08/05 09:39:45;;;;;;;0.68;0.10;;;20.70;99.90;;;;;;20821062;28;20175;-40
2022/08/05 09:49:54;;;;;;;0.63;0.20;;;20.40;99.90;;;;;;20810085;28;20524;-39
2022/08/05 10:00:05;;;;;;;0.30;0.10;;;20.30;99.90;;;;;;20858502;28;20068;-39
2022/08/05 10:10:07;;;;;;;0.40;0.10;;;20.30;99.90;;;;;;20865481;28;20071;-40
2022/08/05 10:20:11;;;;;;;0.43;0.13;;;20.40;99.90;;;;;;20863182;28;20079;-39
2022/08/05 10:30:12;;;;;;;0.38;0.10;;;20.50;99.90;;;;;;20860445;28;20153;-39
2022/08/05 10:40:19;;;;;;;0.30;0.10;;;20.70;99.40;;;;;;20861230;28;20102;-39
2022/08/05 10:50:20;;;;;;;1.40;0.30;;;20.80;99.20;;;;;;20876146;28;20969;-39
2022/08/05 11:00:28;;;;;;;1.85;0.75;;;21.00;99.90;;;;;;20857322;28;20029;-39
2022/08/05 11:10:31;;;;;;;0.70;0.20;;;21.20;99.90;;;;;;20848190;28;20498;-39
2022/08/05 11:20:38;;;;;;;0.08;0.03;;;21.30;99.90;;;;;;20862750;28;21847;-39
2022/08/05 11:30:54;;;;;;;0.97;0.43;;;21.40;99.90;;;;;;20857331;28;20154;-40
2022/08/05 11:41:00;;;;;;;0.25;0.10;;;21.30;99.90;;;;;;20858445;28;20048;-39
2022/08/05 11:51:02;;;;;;;0.15;0.10;;;21.00;99.90;;;;;;20887876;28;20091;-39
2022/08/05 12:01:08;;;;;;;1.90;0.70;;;20.60;99.90;;;;;;20871361;28;20040;-39
2022/08/05 12:11:12;;;;;;;0.60;0.20;;;20.70;99.90;;;;;;20845732;28;20060;-39
2022/08/05 12:21:23;;;;;;;0.47;0.10;;;21.20;99.90;;;;;;20875881;28;20037;-40
2022/08/05 12:31:24;;;;;;;0.00;0.00;;;21.40;99.90;;;;;;20850419;28;20937;-39
2022/08/05 12:41:34;;;;;;;0.32;0.10;;;21.80;99.90;;;;;;20828527;28;20128;-39
2022/08/05 12:51:54;;;;;;;0.55;0.20;;;21.90;99.90;;;;;;20711443;28;20631;-41
2022/08/05 13:02:03;;;;;;;0.10;0.10;;;22.80;99.40;;;;;;20728791;28;20365;-40
2022/08/05 13:12:10;;;;;;;0.52;0.10;;;23.00;99.40;;;;;;20725913;28;20084;-40
2022/08/05 13:22:11;;;;;;;0.60;0.13;;;23.40;95.90;;;;;;20727885;28;20521;-40
2022/08/05 13:32:12;;;;;;;0.43;0.30;;;23.50;96.50;;;;;;20714738;28;20476;-40
2022/08/05 13:42:13;;;;;;;0.57;0.10;;;24.40;95.80;;;;;;20711585;28;20076;-40
2022/08/05 13:52:20;;;;;;;0.95;0.25;;;25.30;93.70;;;;;;20735564;28;20071;-40
2022/08/05 14:02:21;;;;;;;0.17;0.00;;;24.80;95.40;;;;;;20684882;28;20060;-40
2022/08/05 14:12:23;;;;;;;0.65;0.32;;;24.30;95.00;;;;;;20678591;28;20034;-46
2022/08/05 14:22:24;;;;;;;0.20;0.10;;;24.10;95.20;;;;;;20637230;28;22969;-40
2022/08/05 14:32:25;;;;;;;0.40;0.10;;;23.20;97.10;;;;;;20682330;28;20037;-39
2022/08/05 14:42:26;;;;;;;1.00;0.35;;;22.40;99.90;;;;;;20660366;28;20548;-40
2022/08/05 14:52:27;;;;;;;0.30;0.10;;;21.80;99.90;;;;;;20677954;28;20358;-40
2022/08/05 15:02:28;;;;;;;0.65;0.20;;;21.60;99.90;;;;;;20674662;28;20115;-40
2022/08/05 15:12:29;;;;;;;0.32;0.10;;;21.50;99.90;;;;;;20657335;28;20046;-39
2022/08/05 15:22:30;;;;;;;0.63;0.20;;;21.90;99.90;;;;;;20718372;28;20041;-39
2022/08/05 15:32:32;;;;;;;0.93;0.30;;;22.00;99.20;;;;;;20694388;28;20091;-40
2022/08/05 15:42:33;;;;;;;0.82;0.13;;;21.80;99.90;;;;;;20712964;28;20812;-40
2022/08/05 15:52:35;;;;;;;1.45;0.40;;;21.50;99.90;;;;;;20723637;28;20046;-40
2022/08/05 16:02:37;;;;;;;0.70;0.20;;;21.60;99.90;;;;;;20688285;28;20037;-40
2022/08/05 16:12:38;;;;;;;0.38;0.10;;;21.50;99.20;;;;;;20673457;28;20131;-40
2022/08/05 16:22:39;;;;;;;0.75;0.20;;;21.20;98.90;;;;;;20700584;28;20046;-39
2022/08/05 16:32:40;;;;;;;0.77;0.30;;;21.20;98.20;;;;;;20727215;28;20414;-39
2022/08/05 16:42:41;;;;;;;0.93;0.30;;;20.90;99.50;;;;;;20717433;28;20046;-40
2022/08/05 16:52:42;;;;;;;0.98;0.22;;;20.40;99.90;;;;;;20707865;28;20489;-40
2022/08/05 17:02:44;;;;;;;1.35;0.20;;;20.10;99.90;;;;;;20697862;28;20493;-40
2022/08/05 17:12:45;;;;;;;1.23;0.70;;;20.10;99.90;;;;;;20716420;28;20474;-40
2022/08/05 17:22:46;;;;;;;0.90;0.20;;;19.90;99.90;;;;;;20699123;28;20081;-40
2022/08/05 17:32:47;;;;;;;0.60;0.20;;;19.70;99.90;;;;;;20738416;28;20430;-40
2022/08/05 17:42:48;;;;;;;0.52;0.20;;;19.30;99.90;;;;;;20742526;28;20042;-39
2022/08/05 17:52:49;;;;;;;1.58;0.30;;;19.00;99.90;;;;;;20739427;28;20090;-40
2022/08/05 18:02:50;;;;;;;1.00;0.30;;;18.70;99.90;;;;;;20726151;28;20056;-40
2022/08/05 18:12:51;;;;;;;1.95;1.00;;;18.50;99.90;;;;;;20758243;28;20180;-39
2022/08/05 18:22:52;;;;;;;1.63;0.32;;;18.30;99.90;;;;;;20732361;28;20050;-39
2022/08/05 18:32:54;;;;;;;0.82;0.20;;;18.00;99.90;;;;;;20727730;28;20041;-39
2022/08/05 18:42:55;;;;;;;0.52;0.10;;;17.70;99.90;;;;;;20688670;28;20416;-40
2022/08/05 18:52:56;;;;;;;1.15;0.30;;;17.50;99.90;;;;;;20697758;28;20481;-38
2022/08/05 19:02:58;;;;;;;0.80;0.30;;;17.40;99.90;;;;;;20678188;28;20251;-39
2022/08/05 19:12:59;;;;;;;0.55;0.28;;;17.30;99.90;;;;;;20685868;28;20109;-40
2022/08/05 19:23:00;;;;;;;0.73;0.20;;;17.10;99.90;;;;;;20680505;28;20093;-39
2022/08/05 19:33:01;;;;;;;0.55;0.25;;;17.00;99.90;;;;;;20709081;28;20130;-39
2022/08/05 19:43:02;;;;;;;0.88;0.20;;;16.70;99.90;;;;;;20694392;28;20050;-41
2022/08/05 19:53:03;;;;;;;2.90;0.40;;;16.60;99.90;;;;;;20701715;28;20071;-39
2022/08/05 20:03:04;;;;;;;0.88;0.22;;;16.40;99.90;;;;;;20680694;28;20201;-39
2022/08/05 20:13:05;;;;;;;0.80;0.45;;;16.20;99.90;;;;;;20675320;28;20166;-39
2022/08/05 20:23:06;;;;;;;1.17;0.30;;;16.20;99.90;;;;;;20677424;28;20076;-41
2022/08/05 20:33:07;;;;;;;1.20;0.35;;;16.00;99.90;;;;;;20683343;28;20127;-41
2022/08/05 20:43:09;;;;;;;1.10;0.40;;;15.90;99.90;;;;;;20710544;28;20081;-39
2022/08/05 20:53:10;;;;;;;1.15;0.45;;;15.60;99.90;;;;;;20721833;28;20042;-41
2022/08/05 21:03:11;;;;;;;0.82;0.20;;;15.40;99.90;;;;;;20655719;28;20186;-41
2022/08/05 21:13:12;;;;;;;0.52;0.20;;;15.30;99.90;;;;;;20673962;28;20037;-39
2022/08/05 21:23:13;;;;;;;2.17;0.60;;;15.20;99.90;;;;;;20706331;28;20042;-39
2022/08/05 21:33:14;;;;;;;0.77;0.40;;;15.10;99.90;;;;;;20674706;28;20144;-39
2022/08/05 21:43:16;;;;;;;1.70;0.63;;;14.90;99.90;;;;;;20690096;28;20477;-39
2022/08/05 21:53:17;;;;;;;0.60;0.20;;;14.80;99.90;;;;;;20718261;28;20500;-39
2022/08/05 22:03:18;;;;;;;0.68;0.30;;;14.60;99.90;;;;;;20698531;28;20089;-41
2022/08/05 22:13:19;;;;;;;1.02;0.40;;;14.40;99.90;;;;;;20682995;28;20134;-39
2022/08/05 22:33:51;;;;;;;1.90;0.68;;;14.30;99.90;;;;;;20652278;28;21897;-39
2022/08/05 22:43:52;;;;;;;2.72;0.70;;;14.20;99.90;;;;;;20685814;28;20143;-39
2022/08/05 22:53:53;;;;;;;1.35;0.22;;;14.10;99.90;;;;;;20686262;28;20045;-39
2022/08/05 23:03:54;;;;;;;1.05;0.40;;;13.90;99.90;;;;;;20657524;28;20396;-39
2022/08/05 23:13:55;;;;;;;1.55;0.70;;;13.80;99.90;;;;;;20698653;28;20465;-39
2022/08/05 23:23:56;;;;;;;0.70;0.35;;;13.70;99.90;;;;;;20653591;28;20695;-39
2022/08/05 23:33:57;;;;;;;1.52;0.45;;;13.60;99.90;;;;;;20686766;28;20485;-39
2022/08/05 23:43:58;;;;;;;0.82;0.50;;;13.50;99.90;;;;;;20692409;28;20393;-39
2022/08/05 23:53:59;;;;;;;1.58;0.50;;;13.40;99.90;;;;;;20660150;28;20545;-39
